createdAt,value
2018-12-23T00:00:00.196Z,97925.64
2018-12-23T00:02:27.606Z,97922.64
2018-12-23T00:04:54.983Z,97920.82
2018-12-23T00:07:22.366Z,97925.52
2018-12-23T00:09:49.902Z,97930.94
2018-12-23T00:12:17.270Z,97928.89
2018-12-23T00:14:44.738Z,97934.34
2018-12-23T00:17:12.118Z,97938.64
2018-12-23T00:19:39.601Z,97935.67
2018-12-23T00:22:06.982Z,97934.40
2018-12-23T00:24:34.358Z,97942.02
2018-12-23T00:27:01.734Z,97944.58
2018-12-23T00:29:29.102Z,97949.22
2018-12-23T00:31:56.489Z,97965.61
2018-12-23T00:34:23.871Z,97967.06
2018-12-23T00:36:51.471Z,97967.90
2018-12-23T00:39:18.846Z,97974.47
2018-12-23T00:41:46.233Z,97964.13
2018-12-23T00:44:13.622Z,97972.45
2018-12-23T00:46:41.010Z,97973.63
2018-12-23T00:49:08.405Z,97975.36
2018-12-23T00:51:35.786Z,97974.81
2018-12-23T00:54:03.170Z,97974.41
2018-12-23T00:56:30.591Z,97977.55
2018-12-23T00:58:58.030Z,97981.02
2018-12-23T01:01:25.422Z,97973.75
2018-12-23T01:03:52.827Z,97971.88
2018-12-23T01:06:20.318Z,97977.61
2018-12-23T01:08:47.694Z,97978.21
2018-12-23T01:11:15.098Z,97984.70
2018-12-23T01:13:42.480Z,97992.42
2018-12-23T01:16:09.872Z,97985.42
2018-12-23T01:18:37.259Z,97984.20
2018-12-23T01:21:04.690Z,97988.53
2018-12-23T01:23:32.080Z,97991.76
2018-12-23T01:25:59.446Z,97987.78
2018-12-23T01:28:26.830Z,97993.09
2018-12-23T01:30:54.202Z,97994.02
2018-12-23T01:33:21.578Z,97996.58
2018-12-23T01:35:48.960Z,97994.62
2018-12-23T01:38:16.345Z,97990.67
2018-12-23T01:40:43.716Z,97992.31
2018-12-23T01:43:11.183Z,97992.39
2018-12-23T01:45:38.657Z,97998.68
2018-12-23T01:48:06.062Z,97998.34
2018-12-23T01:50:33.434Z,98003.67
2018-12-23T01:53:00.819Z,98006.12
2018-12-23T01:55:28.194Z,98002.48
2018-12-23T01:57:55.578Z,98011.25
2018-12-23T02:00:22.956Z,98010.23
2018-12-23T02:02:50.344Z,98010.33
2018-12-23T02:05:17.738Z,98009.92
2018-12-23T02:07:45.127Z,98008.14
2018-12-23T02:10:12.503Z,98006.27
2018-12-23T02:12:39.915Z,98003.50
2018-12-23T02:15:07.307Z,98010.75
2018-12-23T02:17:34.682Z,98008.47
2018-12-23T02:20:02.070Z,98010.09
2018-12-23T02:22:29.538Z,98010.44
2018-12-23T02:24:56.919Z,98001.63
2018-12-23T02:27:24.339Z,98003.27
2018-12-23T02:29:51.718Z,98010.78
2018-12-23T02:32:19.118Z,98012.05
2018-12-23T02:34:46.491Z,98010.70
2018-12-23T02:37:13.892Z,98012.37
2018-12-23T02:39:41.264Z,98007.73
2018-12-23T02:42:08.679Z,98009.14
2018-12-23T02:44:36.129Z,98014.64
2018-12-23T02:47:03.531Z,98013.89
2018-12-23T02:49:30.900Z,98005.08
2018-12-23T02:51:58.275Z,98007.64
2018-12-23T02:54:25.688Z,98005.70
2018-12-23T02:56:53.069Z,98011.33
2018-12-23T02:59:20.486Z,98008.22
2018-12-23T03:01:47.862Z,98005.37
2018-12-23T03:04:15.242Z,98008.30
2018-12-23T03:06:42.647Z,98003.73
2018-12-23T03:09:10.019Z,98002.48
2018-12-23T03:11:37.413Z,98000.00
2018-12-23T03:14:04.809Z,98000.00
2018-12-23T03:16:32.229Z,98002.08
2018-12-23T03:18:59.701Z,98001.63
2018-12-23T03:21:27.167Z,98002.91
2018-12-23T03:23:54.568Z,97983.55
2018-12-23T03:26:21.958Z,97989.37
2018-12-23T03:28:49.350Z,97992.42
2018-12-23T03:31:16.811Z,97990.98
2018-12-23T03:33:44.311Z,97986.83
2018-12-23T03:36:15.351Z,97987.16
2018-12-23T03:38:41.159Z,97990.90
2018-12-23T03:41:08.562Z,97990.03
2018-12-23T03:43:35.952Z,97992.92
2018-12-23T03:46:03.423Z,97993.84
2018-12-23T03:48:30.806Z,97987.88
2018-12-23T03:50:58.182Z,97993.27
2018-12-23T03:53:25.566Z,97995.37
2018-12-23T03:55:52.950Z,97990.32
2018-12-23T03:58:20.354Z,97994.13
2018-12-23T04:00:47.747Z,97994.09
2018-12-23T04:03:15.206Z,97997.84
2018-12-23T04:05:42.692Z,97991.56
2018-12-23T04:08:10.095Z,98007.98
2018-12-23T04:10:37.475Z,98004.16
2018-12-23T04:13:04.850Z,98006.27
2018-12-23T04:15:32.230Z,98012.61
2018-12-23T04:17:59.606Z,98006.64
2018-12-23T04:20:26.990Z,98010.94
2018-12-23T04:22:54.485Z,98011.77
2018-12-23T04:25:21.955Z,98008.83
2018-12-23T04:27:49.410Z,98019.47
2018-12-23T04:30:16.811Z,98017.88
2018-12-23T04:32:44.207Z,98014.05
2018-12-23T04:35:11.605Z,98016.70
2018-12-23T04:37:39.006Z,98016.32
2018-12-23T04:40:06.388Z,98017.19
2018-12-23T04:42:33.769Z,98011.33
2018-12-23T04:45:01.246Z,98009.31
2018-12-23T04:47:28.619Z,98012.36
2018-12-23T04:49:56.007Z,98012.22
2018-12-23T04:52:23.387Z,98013.12
2018-12-23T04:54:50.787Z,98007.70
2018-12-23T04:57:18.162Z,98014.60
2018-12-23T04:59:46.134Z,98000.91
2018-12-23T05:02:13.503Z,97999.64
2018-12-23T05:04:40.887Z,98007.34
2018-12-23T05:07:08.271Z,97996.02
2018-12-23T05:09:35.642Z,97995.45
2018-12-23T05:12:03.022Z,97986.95
2018-12-23T05:14:30.411Z,97991.87
2018-12-23T05:16:57.816Z,97986.80
2018-12-23T05:19:25.227Z,97993.00
2018-12-23T05:21:52.601Z,97987.58
2018-12-23T05:24:19.980Z,97987.75
2018-12-23T05:26:47.398Z,97986.83
2018-12-23T05:29:14.774Z,98002.54
2018-12-23T05:31:42.158Z,98008.80
2018-12-23T05:34:09.532Z,98013.03
2018-12-23T05:36:36.925Z,98013.03
2018-12-23T05:39:06.142Z,98015.14
2018-12-23T05:41:33.530Z,98011.42
2018-12-23T05:44:00.900Z,98010.17
2018-12-23T05:46:28.282Z,98014.04
2018-12-23T05:48:55.670Z,98018.27
2018-12-23T05:51:23.074Z,98020.91
2018-12-23T05:53:50.443Z,98023.99
2018-12-23T05:56:17.830Z,98019.78
2018-12-23T05:58:45.211Z,98021.52
2018-12-23T06:01:12.674Z,98010.19
2018-12-23T06:03:40.062Z,98012.83
2018-12-23T06:06:07.442Z,98025.09
2018-12-23T06:08:34.818Z,98029.03
2018-12-23T06:11:02.214Z,98025.20
2018-12-23T06:13:29.638Z,98023.19
2018-12-23T06:15:57.043Z,98014.39
2018-12-23T06:18:24.422Z,98010.94
2018-12-23T06:20:52.129Z,98010.45
2018-12-23T06:23:19.538Z,98016.09
2018-12-23T06:25:46.923Z,98016.58
2018-12-23T06:28:14.298Z,98011.94
2018-12-23T06:30:41.674Z,98006.88
2018-12-23T06:33:09.063Z,98014.50
2018-12-23T06:35:36.459Z,98015.34
2018-12-23T06:38:03.895Z,98011.96
2018-12-23T06:40:31.282Z,98021.42
2018-12-23T06:42:58.659Z,98020.62
2018-12-23T06:45:26.050Z,98029.21
2018-12-23T06:47:53.430Z,98030.09
2018-12-23T06:50:20.814Z,98021.45
2018-12-23T06:52:48.182Z,98027.52
2018-12-23T06:55:15.558Z,98036.98
2018-12-23T06:57:43.020Z,98035.81
2018-12-23T07:00:10.443Z,98041.45
2018-12-23T07:02:37.823Z,98045.02
2018-12-23T07:05:05.239Z,98047.98
2018-12-23T07:07:32.625Z,98048.39
2018-12-23T07:10:00.002Z,98049.73
2018-12-23T07:12:27.420Z,98053.14
2018-12-23T07:14:54.794Z,98060.80
2018-12-23T07:17:22.175Z,98057.84
2018-12-23T07:19:49.555Z,98056.98
2018-12-23T07:22:16.982Z,98048.53
2018-12-23T07:24:44.378Z,98048.08
2018-12-23T07:27:11.762Z,98053.14
2018-12-23T07:29:39.150Z,98046.00
2018-12-23T07:32:06.555Z,98043.47
2018-12-23T07:34:33.939Z,98044.34
2018-12-23T07:37:01.319Z,98043.97
2018-12-23T07:39:28.707Z,98041.31
2018-12-23T07:41:56.099Z,98045.11
2018-12-23T07:44:23.483Z,98050.59
2018-12-23T07:46:50.886Z,98045.93
2018-12-23T07:49:18.276Z,98046.66
2018-12-23T07:51:45.654Z,98043.33
2018-12-23T07:54:13.134Z,98047.63
2018-12-23T07:56:40.628Z,98036.59
2018-12-23T07:59:08.082Z,98039.89
2018-12-23T08:01:35.478Z,98044.66
2018-12-23T08:04:02.869Z,98042.49
2018-12-23T08:06:30.255Z,98045.40
2018-12-23T08:08:57.724Z,98041.24
2018-12-23T08:11:25.098Z,98045.52
2018-12-23T08:13:52.474Z,98049.59
2018-12-23T08:16:19.888Z,98046.59
2018-12-23T08:18:47.283Z,98048.96
2018-12-23T08:21:14.671Z,98047.21
2018-12-23T08:23:42.082Z,98046.28
2018-12-23T08:26:09.454Z,98043.77
2018-12-23T08:28:36.858Z,98041.64
2018-12-23T08:31:04.249Z,98044.97
2018-12-23T08:33:31.627Z,98040.64
2018-12-23T08:35:59.010Z,98043.19
2018-12-23T08:38:26.389Z,98042.27
2018-12-23T08:40:53.771Z,98042.64
2018-12-23T08:43:21.179Z,98051.50
2018-12-23T08:45:48.566Z,98042.05
2018-12-23T08:48:15.947Z,98043.60
2018-12-23T08:50:43.338Z,98042.23
2018-12-23T08:53:10.719Z,98041.67
2018-12-23T08:55:38.106Z,98041.19
2018-12-23T08:58:05.492Z,98036.60
2018-12-23T09:00:32.978Z,98037.39
2018-12-23T09:03:00.367Z,98037.31
2018-12-23T09:05:27.752Z,98040.52
2018-12-23T09:07:55.131Z,98038.84
2018-12-23T09:10:22.515Z,98029.81
2018-12-23T09:12:49.902Z,98031.90
2018-12-23T09:15:17.283Z,98030.47
2018-12-23T09:17:44.661Z,98023.59
2018-12-23T09:20:12.934Z,98021.80
2018-12-23T09:22:40.302Z,98020.52
2018-12-23T09:25:07.707Z,98020.84
2018-12-23T09:27:35.082Z,98015.73
2018-12-23T09:30:02.518Z,98010.15
2018-12-23T09:32:29.906Z,98005.71
2018-12-23T09:34:57.306Z,98001.73
2018-12-23T09:37:24.678Z,97998.08
2018-12-23T09:39:52.065Z,97995.97
2018-12-23T09:42:19.550Z,97986.83
2018-12-23T09:44:46.934Z,97985.83
2018-12-23T09:47:14.342Z,97989.14
2018-12-23T09:49:41.730Z,97980.35
2018-12-23T09:52:09.116Z,97972.20
2018-12-23T09:54:36.585Z,97971.64
2018-12-23T09:57:03.978Z,97964.31
2018-12-23T09:59:31.386Z,97958.23
2018-12-23T10:01:58.757Z,97960.52
2018-12-23T10:04:26.155Z,97961.36
2018-12-23T10:06:53.542Z,97960.56
2018-12-23T10:09:20.911Z,97958.58
2018-12-23T10:11:48.321Z,97958.64
2018-12-23T10:14:15.802Z,97953.81
2018-12-23T10:16:43.183Z,97948.95
2018-12-23T10:19:10.554Z,97944.25
2018-12-23T10:21:37.942Z,97942.36
2018-12-23T10:24:05.335Z,97940.50
2018-12-23T10:26:32.719Z,97938.36
2018-12-23T10:29:00.099Z,97938.13
2018-12-23T10:31:27.483Z,97932.69
2018-12-23T10:33:55.784Z,97932.48
2018-12-23T10:36:23.174Z,97929.92
2018-12-23T10:38:50.554Z,97926.75
2018-12-23T10:41:17.937Z,97923.55
2018-12-23T10:43:45.317Z,97921.91
2018-12-23T10:46:12.802Z,97921.30
2018-12-23T10:48:40.191Z,97909.91
2018-12-23T10:51:07.571Z,97899.44
2018-12-23T10:53:34.942Z,97898.14
2018-12-23T10:56:02.342Z,97895.30
2018-12-23T10:58:29.731Z,97892.08
2018-12-23T11:00:57.147Z,97883.63
2018-12-23T11:03:24.532Z,97886.41
2018-12-23T11:05:51.912Z,97877.48
2018-12-23T11:08:26.696Z,97877.71
2018-12-23T11:10:48.665Z,97868.82
2018-12-23T11:13:16.063Z,97868.06
2018-12-23T11:15:43.441Z,97863.18
2018-12-23T11:18:10.842Z,97858.91
2018-12-23T11:20:38.223Z,97858.24
2018-12-23T11:23:05.626Z,97850.52
2018-12-23T11:25:33.023Z,97845.31
2018-12-23T11:28:00.399Z,97846.92
2018-12-23T11:30:27.784Z,97848.70
2018-12-23T11:32:55.185Z,97837.01
2018-12-23T11:35:22.646Z,97842.02
2018-12-23T11:37:50.028Z,97834.17
2018-12-23T11:40:17.453Z,97821.98
2018-12-23T11:42:44.842Z,97815.73
2018-12-23T11:45:12.211Z,97814.03
2018-12-23T11:47:39.587Z,97816.17
2018-12-23T11:50:06.987Z,97805.14
2018-12-23T11:52:34.380Z,97796.27
2018-12-23T11:55:01.936Z,97791.09
2018-12-23T11:57:29.399Z,97782.72
2018-12-23T11:59:56.791Z,97775.60
2018-12-23T12:02:24.246Z,97770.36
2018-12-23T12:04:51.623Z,97767.16
2018-12-23T12:07:19.006Z,97759.19
2018-12-23T12:09:46.439Z,97759.44
2018-12-23T12:12:13.811Z,97748.34
2018-12-23T12:14:41.291Z,97741.16
2018-12-23T12:17:08.670Z,97740.02
2018-12-23T12:19:36.052Z,97736.64
2018-12-23T12:22:03.451Z,97735.27
2018-12-23T12:24:30.831Z,97725.19
2018-12-23T12:26:58.211Z,97720.77
2018-12-23T12:29:25.601Z,97716.61
2018-12-23T12:31:53.083Z,97721.37
2018-12-23T12:34:20.471Z,97721.74
2018-12-23T12:36:47.869Z,97715.14
2018-12-23T12:39:15.243Z,97712.64
2018-12-23T12:41:42.627Z,97705.09
2018-12-23T12:44:10.011Z,97700.59
2018-12-23T12:46:37.410Z,97697.83
2018-12-23T12:49:04.819Z,97696.01
2018-12-23T12:51:32.206Z,97690.39
2018-12-23T12:53:59.577Z,97681.62
2018-12-23T12:56:26.962Z,97677.73
2018-12-23T12:58:54.349Z,97673.61
2018-12-23T13:01:21.728Z,97668.93
2018-12-23T13:03:49.106Z,97664.00
2018-12-23T13:06:16.514Z,97651.70
2018-12-23T13:08:43.882Z,97655.12
2018-12-23T13:11:11.259Z,97653.92
2018-12-23T13:13:38.647Z,97651.09
2018-12-23T13:16:34.021Z,100002.26
2018-12-23T13:19:02.367Z,100002.26
2018-12-23T13:21:30.714Z,100002.26
2018-12-23T13:23:59.069Z,100002.26
2018-12-23T13:26:46.801Z,100002.26
2018-12-23T13:29:15.173Z,100002.26
2018-12-23T13:31:43.528Z,100002.26
2018-12-23T13:34:11.887Z,100002.26
2018-12-23T13:36:40.235Z,100002.26
2018-12-23T13:39:09.074Z,100002.26
2018-12-23T13:42:17.398Z,100002.26
2018-12-23T13:45:24.479Z,100002.26
2018-12-23T13:48:19.465Z,100002.26
2018-12-23T13:51:26.558Z,100002.26
2018-12-23T13:54:35.015Z,100002.26
2018-12-23T13:57:43.430Z,100002.26
2018-12-23T14:00:50.517Z,100002.26
2018-12-23T14:04:00.035Z,100002.26
2018-12-23T14:07:09.113Z,100002.26
2018-12-23T14:13:21.198Z,100002.26
2018-12-23T14:15:49.557Z,100002.26
2018-12-23T14:18:17.920Z,100002.26
2018-12-23T14:20:46.274Z,100002.26
2018-12-23T14:23:14.639Z,100002.26
2018-12-23T14:25:42.986Z,100002.26
2018-12-23T14:28:11.345Z,100002.26
2018-12-23T14:30:39.698Z,100002.26
2018-12-23T14:33:08.063Z,100002.26
2018-12-23T14:35:36.434Z,100002.26
2018-12-23T14:38:04.798Z,100002.26
2018-12-23T14:40:33.156Z,100002.26
2018-12-23T14:43:01.522Z,100002.26
2018-12-23T14:45:29.897Z,100002.26
2018-12-23T14:47:58.264Z,100002.26
2018-12-23T14:50:26.615Z,100002.26
2018-12-23T14:52:55.009Z,100002.26
2018-12-23T14:55:23.365Z,100002.26
2018-12-23T14:57:51.725Z,100002.26
2018-12-23T15:00:20.080Z,100002.26
2018-12-23T15:02:48.442Z,100002.26
2018-12-23T15:05:16.797Z,100002.26
2018-12-23T15:07:45.165Z,100002.26
2018-12-23T15:10:13.509Z,100002.26
2018-12-23T15:12:41.874Z,100002.26
2018-12-23T15:15:10.232Z,100002.26
2018-12-23T15:17:38.597Z,100002.26
2018-12-23T15:20:46.996Z,100002.26
2018-12-23T15:23:15.355Z,100002.26
2018-12-23T15:25:43.705Z,100002.26
2018-12-23T15:28:31.419Z,100002.26
2018-12-23T15:31:01.485Z,100002.26
2018-12-23T15:33:29.850Z,100002.26
2018-12-23T15:35:58.194Z,100002.26
2018-12-23T15:38:26.551Z,100002.26
2018-12-23T15:40:54.913Z,100002.26
2018-12-23T15:43:23.268Z,100002.26
2018-12-23T15:45:51.619Z,100002.26
2018-12-23T15:48:19.970Z,100002.26
2018-12-23T15:50:48.313Z,100002.26
2018-12-23T15:53:16.676Z,100002.26
2018-12-23T15:55:45.026Z,100002.26
2018-12-23T15:58:13.386Z,100002.26
2018-12-23T16:00:41.734Z,100002.26
2018-12-23T16:03:10.098Z,100002.26
2018-12-23T16:05:38.444Z,100002.26
2018-12-23T16:08:06.805Z,100002.26
2018-12-23T16:10:35.158Z,100002.26
2018-12-23T16:13:22.864Z,100002.26
2018-12-23T16:15:51.213Z,100002.26
2018-12-23T16:18:19.675Z,100002.26
2018-12-23T16:20:48.005Z,100002.26
2018-12-23T16:23:16.359Z,100002.26
2018-12-23T16:25:44.705Z,100002.26
2018-12-23T16:28:13.062Z,100002.26
2018-12-23T16:30:41.412Z,100002.26
2018-12-23T16:33:09.777Z,100002.26
2018-12-23T16:35:38.118Z,100002.26
2018-12-23T16:38:06.477Z,100002.26
2018-12-23T16:40:34.833Z,100002.26
2018-12-23T16:43:03.189Z,100002.26
2018-12-23T16:45:31.538Z,100002.26
2018-12-23T16:47:59.910Z,100002.26
2018-12-23T16:50:28.263Z,100002.26
2018-12-23T16:52:56.611Z,100002.26
2018-12-23T16:55:25.070Z,100002.26
2018-12-23T16:57:53.422Z,100002.26
2018-12-23T17:00:21.782Z,100002.26
2018-12-23T17:02:50.118Z,100002.26
2018-12-23T17:05:18.473Z,100002.26
2018-12-23T17:07:46.817Z,100002.26
2018-12-23T17:10:15.164Z,100002.26
2018-12-23T17:12:43.512Z,100002.26
2018-12-23T17:15:11.862Z,100002.26
2018-12-23T17:17:40.206Z,100002.26
2018-12-23T17:20:48.607Z,100002.26
2018-12-23T17:23:16.958Z,100002.26
2018-12-23T17:25:45.308Z,100002.26
2018-12-23T17:28:13.646Z,100002.26
2018-12-23T17:30:41.994Z,100002.26
2018-12-23T17:33:10.336Z,100002.26
2018-12-23T17:35:38.704Z,100002.26
2018-12-23T17:38:07.052Z,100002.26
2018-12-23T17:40:35.415Z,100002.26
2018-12-23T17:43:03.758Z,100002.26
2018-12-23T17:45:32.104Z,100002.26
2018-12-23T17:48:00.444Z,100002.26
2018-12-23T17:50:28.794Z,100002.26
2018-12-23T17:52:57.204Z,100002.26
2018-12-23T17:55:25.954Z,100002.26
2018-12-23T17:57:54.294Z,100002.26
2018-12-23T18:00:22.649Z,100002.26
2018-12-23T18:02:50.993Z,100002.26
2018-12-23T18:05:19.341Z,100002.26
2018-12-23T18:07:47.682Z,100002.26
2018-12-23T18:10:16.026Z,100002.26
2018-12-23T18:12:44.371Z,100002.26
2018-12-23T18:15:12.719Z,100002.26
2018-12-23T18:17:41.067Z,100002.26
2018-12-23T18:20:09.418Z,100002.26
2018-12-23T18:22:37.761Z,100002.26
2018-12-23T18:25:06.180Z,100002.26
2018-12-23T18:27:34.519Z,100002.26
2018-12-23T18:30:02.870Z,100002.26
2018-12-23T18:32:31.214Z,100002.26
2018-12-23T18:34:59.564Z,100002.26
2018-12-23T18:37:27.908Z,100002.26
2018-12-23T18:39:56.250Z,100002.26
2018-12-23T18:42:24.598Z,100002.26
2018-12-23T18:44:52.935Z,100002.26
2018-12-23T18:47:21.285Z,100002.26
2018-12-23T18:49:49.625Z,100002.26
2018-12-23T18:52:17.980Z,100002.26
2018-12-23T18:54:46.318Z,100002.26
2018-12-23T18:57:14.664Z,100002.26
2018-12-23T18:59:43.003Z,100002.26
2018-12-23T19:02:11.360Z,100002.26
2018-12-23T19:04:39.699Z,100002.26
2018-12-23T19:07:08.050Z,100002.26
2018-12-23T19:10:16.476Z,100002.26
2018-12-23T19:13:24.880Z,100002.26
2018-12-23T19:16:31.957Z,100002.26
2018-12-23T19:19:40.341Z,100002.26
2018-12-23T19:22:48.748Z,100002.26
2018-12-23T19:25:55.824Z,100002.26
2018-12-23T19:29:04.296Z,100002.26
2018-12-23T19:32:12.698Z,100002.26
2018-12-23T19:35:21.148Z,100002.26
2018-12-23T19:37:58.157Z,100002.26
2018-12-23T19:41:05.235Z,100002.26
2018-12-23T19:44:13.639Z,100002.26
2018-12-23T19:47:20.721Z,100002.26
2018-12-23T19:50:27.787Z,100002.26
2018-12-23T19:53:19.773Z,100002.26
2018-12-23T19:56:28.252Z,100002.26
2018-12-23T19:59:36.699Z,100002.26
2018-12-23T20:02:45.151Z,100002.26
2018-12-23T20:05:52.243Z,100002.26
2018-12-23T20:08:59.306Z,100002.26
2018-12-23T20:12:06.383Z,100002.26
2018-12-23T20:15:13.459Z,100002.26
2018-12-23T20:18:20.612Z,100002.26
2018-12-23T20:21:29.301Z,100002.26
2018-12-23T20:24:37.709Z,100002.26
2018-12-23T20:27:46.137Z,100002.26
2018-12-23T20:30:53.214Z,100002.26
2018-12-23T20:34:00.347Z,100002.26
2018-12-23T20:37:08.742Z,100002.26
2018-12-23T20:40:15.823Z,100002.26
2018-12-23T20:42:59.256Z,100002.26
2018-12-23T20:46:06.330Z,100002.26
2018-12-23T20:49:14.808Z,100002.26
2018-12-23T20:52:23.251Z,100002.26
2018-12-23T20:55:30.326Z,100002.26
2018-12-23T20:58:23.582Z,100002.26
2018-12-23T21:01:30.651Z,100002.26
2018-12-23T21:04:37.727Z,100002.26
2018-12-23T21:07:44.851Z,100002.26
2018-12-23T21:10:51.930Z,100002.26
2018-12-23T21:13:59.031Z,100002.26
2018-12-23T21:17:07.475Z,100002.26
2018-12-23T21:20:14.554Z,100002.26
2018-12-23T21:23:21.691Z,100002.26
2018-12-23T21:26:28.761Z,100002.26
2018-12-23T21:29:35.863Z,100002.26
2018-12-23T21:32:42.955Z,100002.26
2018-12-23T21:35:50.192Z,100002.26
2018-12-23T21:38:31.400Z,100002.26
2018-12-23T21:41:39.849Z,100002.26
2018-12-23T21:44:46.917Z,100002.26
2018-12-23T21:47:53.989Z,100002.26
2018-12-23T21:51:01.070Z,100002.26
2018-12-23T21:54:08.177Z,100002.26
2018-12-23T21:57:16.589Z,100002.26
2018-12-23T22:00:25.060Z,100002.26
2018-12-23T22:03:14.453Z,100002.26
2018-12-23T22:06:21.534Z,100002.26
2018-12-23T22:09:28.604Z,100002.26
2018-12-23T22:12:35.762Z,100002.26
2018-12-23T22:15:04.118Z,100002.26
2018-12-23T22:17:32.482Z,100002.26
2018-12-23T22:20:20.189Z,100002.26
2018-12-23T22:22:48.550Z,100002.26
2018-12-23T22:25:36.280Z,100002.26
2018-12-23T22:28:04.628Z,100002.26
2018-12-23T22:30:32.978Z,100002.26
2018-12-23T22:33:01.328Z,100002.26
2018-12-23T22:35:29.675Z,100002.26
2018-12-23T22:37:58.023Z,100002.26
2018-12-23T22:40:26.376Z,100002.26
2018-12-23T22:42:54.726Z,100002.26
2018-12-23T22:45:23.067Z,100002.26
2018-12-23T22:47:51.416Z,100002.26
2018-12-23T22:50:19.766Z,100002.26
2018-12-23T22:52:48.187Z,100002.26
2018-12-23T22:55:16.937Z,100002.26
2018-12-23T22:57:45.261Z,100002.26
2018-12-23T23:00:53.656Z,100002.26
2018-12-23T23:03:22.007Z,100002.26
2018-12-23T23:05:50.437Z,100002.26
2018-12-23T23:08:18.784Z,100002.26
2018-12-23T23:10:47.131Z,100002.26
2018-12-23T23:13:18.704Z,100002.26
2018-12-23T23:15:45.537Z,100002.26
2018-12-23T23:18:13.887Z,100002.26
2018-12-23T23:20:42.243Z,100002.26
2018-12-23T23:23:10.659Z,100002.26
2018-12-23T23:25:38.999Z,100002.26
2018-12-23T23:28:07.362Z,100002.26
2018-12-23T23:30:35.701Z,100002.26
2018-12-23T23:33:04.045Z,100002.26
2018-12-23T23:35:32.708Z,100002.26
2018-12-23T23:38:02.072Z,100002.26
2018-12-23T23:40:30.390Z,100002.26
2018-12-23T23:42:58.738Z,100002.26
2018-12-23T23:45:27.082Z,100002.26
2018-12-23T23:47:55.747Z,100002.26
2018-12-23T23:50:24.184Z,100002.26
2018-12-23T23:52:52.547Z,100002.26
2018-12-23T23:55:20.882Z,100002.26
2018-12-23T23:57:49.248Z,100002.26
